sensor_id;sensor_type;location;lat;lon;timestamp;pressure;altitude;pressure_sealevel;temperature;humidity
13661;BME280;6903;49.480;11.102;2023-03-20T00:01:41;98058.19;;;9.58;100.00
13661;BME280;6903;49.480;11.102;2023-03-20T00:04:09;98067.06;;;9.57;100.00
13661;BME280;6903;49.480;11.102;2023-03-20T00:09:47;98056.75;;;9.54;100.00
13661;BME280;6903;49.480;11.102;2023-03-20T00:12:14;98058.16;;;9.47;100.00
13661;BME280;6903;49.480;11.102;2023-03-20T00:14:42;98063.88;;;9.41;100.00
13661;BME280;6903;49.480;11.102;2023-03-20T00:17:09;98062.31;;;9.39;100.00
13661;BME280;6903;49.480;11.102;2023-03-20T00:19:35;98058.84;;;9.38;100.00
13661;BME280;6903;49.480;11.102;2023-03-20T00:22:02;98065.06;;;9.37;100.00
13661;BME280;6903;49.480;11.102;2023-03-20T00:24:27;98059.81;;;9.37;100.00
13661;BME280;6903;49.480;11.102;2023-03-20T00:26:52;98066.84;;;9.37;100.00
13661;BME280;6903;49.480;11.102;2023-03-20T00:29:25;98066.84;;;9.37;100.00
13661;BME280;6903;49.480;11.102;2023-03-20T00:31:51;98064.22;;;9.37;100.00
13661;BME280;6903;49.480;11.102;2023-03-20T00:34:18;98065.88;;;9.38;100.00
13661;BME280;6903;49.480;11.102;2023-03-20T00:36:44;98064.63;;;9.43;100.00
13661;BME280;6903;49.480;11.102;2023-03-20T00:39:10;98062.72;;;9.45;100.00
13661;BME280;6903;49.480;11.102;2023-03-20T00:41:50;98071.19;;;9.49;100.00
13661;BME280;6903;49.480;11.102;2023-03-20T00:44:21;98070.88;;;9.53;100.00
13661;BME280;6903;49.480;11.102;2023-03-20T00:46:51;98068.97;;;9.55;100.00
13661;BME280;6903;49.480;11.102;2023-03-20T00:49:19;98074.00;;;9.58;100.00
13661;BME280;6903;49.480;11.102;2023-03-20T00:51:46;98069.56;;;9.59;100.00
13661;BME280;6903;49.480;11.102;2023-03-20T00:54:14;98063.94;;;9.52;100.00
13661;BME280;6903;49.480;11.102;2023-03-20T00:56:46;98065.63;;;9.53;100.00
13661;BME280;6903;49.480;11.102;2023-03-20T00:59:17;98060.13;;;9.56;100.00
13661;BME280;6903;49.480;11.102;2023-03-20T01:01:45;98066.09;;;9.58;100.00
13661;BME280;6903;49.480;11.102;2023-03-20T01:04:13;98062.66;;;9.58;100.00
13661;BME280;6903;49.480;11.102;2023-03-20T01:06:39;98059.16;;;9.57;100.00
13661;BME280;6903;49.480;11.102;2023-03-20T01:09:04;98067.06;;;9.57;100.00
13661;BME280;6903;49.480;11.102;2023-03-20T01:11:29;98065.41;;;9.56;100.00
13661;BME280;6903;49.480;11.102;2023-03-20T01:13:55;98059.16;;;9.57;100.00
13661;BME280;6903;49.480;11.102;2023-03-20T01:16:23;98055.47;;;9.60;100.00
13661;BME280;6903;49.480;11.102;2023-03-20T01:18:50;98057.78;;;9.64;100.00
13661;BME280;6903;49.480;11.102;2023-03-20T01:21:16;98050.59;;;9.66;100.00
13661;BME280;6903;49.480;11.102;2023-03-20T01:23:42;98046.16;;;9.67;100.00
13661;BME280;6903;49.480;11.102;2023-03-20T01:26:21;98044.16;;;9.70;100.00
13661;BME280;6903;49.480;11.102;2023-03-20T01:28:49;98039.63;;;9.72;100.00
13661;BME280;6903;49.480;11.102;2023-03-20T01:31:15;98049.91;;;9.75;100.00
13661;BME280;6903;49.480;11.102;2023-03-20T01:33:41;98044.41;;;9.78;100.00
13661;BME280;6903;49.480;11.102;2023-03-20T01:36:09;98053.28;;;9.77;100.00
13661;BME280;6903;49.480;11.102;2023-03-20T01:38:36;98058.53;;;9.77;100.00
13661;BME280;6903;49.480;11.102;2023-03-20T01:41:05;98070.75;;;9.78;100.00
13661;BME280;6903;49.480;11.102;2023-03-20T01:43:32;98076.00;;;9.78;100.00
13661;BME280;6903;49.480;11.102;2023-03-20T01:48:56;98073.63;;;9.75;100.00
13661;BME280;6903;49.480;11.102;2023-03-20T01:51:26;98074.22;;;9.79;100.00
13661;BME280;6903;49.480;11.102;2023-03-20T01:54:12;98076.00;;;9.78;100.00
13661;BME280;6903;49.480;11.102;2023-03-20T01:56:43;98080.44;;;9.78;100.00
13661;BME280;6903;49.480;11.102;2023-03-20T01:59:17;98082.13;;;9.79;100.00
13661;BME280;6903;49.480;11.102;2023-03-20T02:01:45;98075.28;;;9.76;100.00
13661;BME280;6903;49.480;11.102;2023-03-20T02:04:11;98082.25;;;9.77;100.00
13661;BME280;6903;49.480;11.102;2023-03-20T02:06:37;98084.66;;;9.80;100.00
13661;BME280;6903;49.480;11.102;2023-03-20T02:09:04;98079.38;;;9.80;100.00
13661;BME280;6903;49.480;11.102;2023-03-20T02:11:30;98088.00;;;9.82;100.00
13661;BME280;6903;49.480;11.102;2023-03-20T02:13:57;98093.97;;;9.84;100.00
13661;BME280;6903;49.480;11.102;2023-03-20T02:16:24;98093.63;;;9.89;100.00
13661;BME280;6903;49.480;11.102;2023-03-20T02:18:51;98086.59;;;9.89;100.00
13661;BME280;6903;49.480;11.102;2023-03-20T02:21:55;98084.91;;;9.88;100.00
13661;BME280;6903;49.480;11.102;2023-03-20T02:24:42;98079.53;;;9.90;100.00
13661;BME280;6903;49.480;11.102;2023-03-20T02:27:33;98085.84;;;9.87;100.00
13661;BME280;6903;49.480;11.102;2023-03-20T02:30:22;98085.97;;;9.86;100.00
13661;BME280;6903;49.480;11.102;2023-03-20T02:33:22;98087.91;;;9.84;100.00
13661;BME280;6903;49.480;11.102;2023-03-20T02:41:36;98090.41;;;9.62;100.00
13661;BME280;6903;49.480;11.102;2023-03-20T02:44:11;98090.75;;;9.57;100.00
13661;BME280;6903;49.480;11.102;2023-03-20T02:52:05;98093.97;;;9.50;100.00
13661;BME280;6903;49.480;11.102;2023-03-20T02:54:40;98093.00;;;9.51;100.00
13661;BME280;6903;49.480;11.102;2023-03-20T02:57:19;98097.31;;;9.52;100.00
13661;BME280;6903;49.480;11.102;2023-03-20T03:02:37;98100.78;;;9.52;100.00
13661;BME280;6903;49.480;11.102;2023-03-20T03:05:13;98094.56;;;9.53;100.00
13661;BME280;6903;49.480;11.102;2023-03-20T03:07:43;98092.75;;;9.54;100.00
13661;BME280;6903;49.480;11.102;2023-03-20T03:10:18;98091.94;;;9.53;100.00
13661;BME280;6903;49.480;11.102;2023-03-20T03:12:47;98097.53;;;9.49;100.00
13661;BME280;6903;49.480;11.102;2023-03-20T03:15:35;98100.03;;;9.50;100.00
13661;BME280;6903;49.480;11.102;2023-03-20T03:18:04;98095.16;;;9.57;100.00
13661;BME280;6903;49.480;11.102;2023-03-20T03:20:34;98105.81;;;9.55;100.00
13661;BME280;6903;49.480;11.102;2023-03-20T03:23:01;98107.75;;;9.53;100.00
13661;BME280;6903;49.480;11.102;2023-03-20T03:25:29;98102.66;;;9.50;100.00
13661;BME280;6903;49.480;11.102;2023-03-20T03:28:07;98113.44;;;9.47;100.00
13661;BME280;6903;49.480;11.102;2023-03-20T03:30:37;98112.84;;;9.44;100.00
13661;BME280;6903;49.480;11.102;2023-03-20T03:33:22;98121.88;;;9.40;100.00
13661;BME280;6903;49.480;11.102;2023-03-20T03:35:50;98116.34;;;9.32;100.00
13661;BME280;6903;49.480;11.102;2023-03-20T03:38:29;98111.53;;;9.26;100.00
13661;BME280;6903;49.480;11.102;2023-03-20T03:40:59;98110.88;;;9.22;100.00
13661;BME280;6903;49.480;11.102;2023-03-20T03:43:33;98115.31;;;9.22;100.00
13661;BME280;6903;49.480;11.102;2023-03-20T03:46:08;98116.25;;;9.21;100.00
13661;BME280;6903;49.480;11.102;2023-03-20T03:48:44;98112.66;;;9.22;100.00
13661;BME280;6903;49.480;11.102;2023-03-20T03:51:22;98108.25;;;9.22;100.00
13661;BME280;6903;49.480;11.102;2023-03-20T03:53:56;98114.56;;;9.20;100.00
13661;BME280;6903;49.480;11.102;2023-03-20T03:56:25;98110.59;;;9.14;100.00
13661;BME280;6903;49.480;11.102;2023-03-20T03:58:54;98107.91;;;9.03;100.00
13661;BME280;6903;49.480;11.102;2023-03-20T04:01:22;98114.63;;;8.95;100.00
13661;BME280;6903;49.480;11.102;2023-03-20T04:03:53;98114.31;;;8.87;100.00
13661;BME280;6903;49.480;11.102;2023-03-20T04:06:20;98114.66;;;8.82;100.00
13661;BME280;6903;49.480;11.102;2023-03-20T04:08:45;98117.41;;;8.81;100.00
13661;BME280;6903;49.480;11.102;2023-03-20T04:11:14;98116.53;;;8.80;100.00
13661;BME280;6903;49.480;11.102;2023-03-20T04:13:40;98108.88;;;8.77;100.00
13661;BME280;6903;49.480;11.102;2023-03-20T04:16:11;98108.97;;;8.76;100.00
13661;BME280;6903;49.480;11.102;2023-03-20T04:18:37;98114.03;;;8.79;100.00
13661;BME280;6903;49.480;11.102;2023-03-20T04:21:02;98117.41;;;8.81;100.00
13661;BME280;6903;49.480;11.102;2023-03-20T04:23:28;98118.31;;;8.80;100.00
13661;BME280;6903;49.480;11.102;2023-03-20T04:25:53;98110.13;;;8.84;100.00
13661;BME280;6903;49.480;11.102;2023-03-20T04:28:18;98124.75;;;8.88;100.00
13661;BME280;6903;49.480;11.102;2023-03-20T04:30:44;98113.19;;;8.91;100.00
13661;BME280;6903;49.480;11.102;2023-03-20T04:33:15;98114.63;;;8.95;100.00
13661;BME280;6903;49.480;11.102;2023-03-20T04:35:41;98113.56;;;8.97;100.00
13661;BME280;6903;49.480;11.102;2023-03-20T04:38:06;98115.16;;;9.00;100.00
13661;BME280;6903;49.480;11.102;2023-03-20T04:40:33;98120.31;;;9.01;100.00
13661;BME280;6903;49.480;11.102;2023-03-20T04:42:58;98126.31;;;9.03;100.00
13661;BME280;6903;49.480;11.102;2023-03-20T04:45:23;98126.09;;;9.06;100.00
13661;BME280;6903;49.480;11.102;2023-03-20T04:47:49;98123.34;;;9.08;100.00
13661;BME280;6903;49.480;11.102;2023-03-20T04:50:14;98130.06;;;9.12;100.00
13661;BME280;6903;49.480;11.102;2023-03-20T04:52:39;98128.28;;;9.12;100.00
13661;BME280;6903;49.480;11.102;2023-03-20T04:55:05;98131.63;;;9.14;100.00
13661;BME280;6903;49.480;11.102;2023-03-20T04:57:30;98130.78;;;9.14;100.00
13661;BME280;6903;49.480;11.102;2023-03-20T04:59:57;98133.31;;;9.15;100.00
13661;BME280;6903;49.480;11.102;2023-03-20T05:02:22;98129.00;;;9.14;100.00
13661;BME280;6903;49.480;11.102;2023-03-20T05:04:47;98129.97;;;9.13;100.00
13661;BME280;6903;49.480;11.102;2023-03-20T05:07:12;98130.16;;;9.10;100.00
13661;BME280;6903;49.480;11.102;2023-03-20T05:09:38;98152.16;;;9.09;100.00
13661;BME280;6903;49.480;11.102;2023-03-20T05:12:03;98152.28;;;9.08;100.00
13661;BME280;6903;49.480;11.102;2023-03-20T05:14:29;98156.69;;;9.07;100.00
13661;BME280;6903;49.480;11.102;2023-03-20T05:16:54;98158.38;;;9.08;100.00
13661;BME280;6903;49.480;11.102;2023-03-20T05:19:20;98158.38;;;9.08;100.00
13661;BME280;6903;49.480;11.102;2023-03-20T05:21:45;98165.66;;;9.05;100.00
13661;BME280;6903;49.480;11.102;2023-03-20T05:24:11;98161.03;;;9.08;100.00
13661;BME280;6903;49.480;11.102;2023-03-20T05:26:36;98167.00;;;9.10;100.00
13661;BME280;6903;49.480;11.102;2023-03-20T05:29:01;98175.41;;;9.15;100.00
13661;BME280;6903;49.480;11.102;2023-03-20T05:31:27;98168.25;;;9.17;100.00
13661;BME280;6903;49.480;11.102;2023-03-20T05:33:52;98173.41;;;9.19;100.00
13661;BME280;6903;49.480;11.102;2023-03-20T05:36:17;98172.44;;;9.20;100.00
13661;BME280;6903;49.480;11.102;2023-03-20T05:38:43;98175.19;;;9.18;100.00
13661;BME280;6903;49.480;11.102;2023-03-20T05:41:08;98176.16;;;9.17;100.00
13661;BME280;6903;49.480;11.102;2023-03-20T05:43:33;98177.69;;;9.20;100.00
13661;BME280;6903;49.480;11.102;2023-03-20T05:45:58;98179.28;;;9.22;100.00
13661;BME280;6903;49.480;11.102;2023-03-20T05:48:24;98174.78;;;9.24;100.00
13661;BME280;6903;49.480;11.102;2023-03-20T05:50:49;98177.41;;;9.24;100.00
13661;BME280;6903;49.480;11.102;2023-03-20T05:53:15;98184.13;;;9.28;100.00
13661;BME280;6903;49.480;11.102;2023-03-20T05:55:40;98178.84;;;9.28;100.00
13661;BME280;6903;49.480;11.102;2023-03-20T05:58:09;98179.72;;;9.29;100.00
13661;BME280;6903;49.480;11.102;2023-03-20T06:00:34;98182.97;;;9.32;100.00
13661;BME280;6903;49.480;11.102;2023-03-20T06:02:59;98182.63;;;9.37;100.00
13661;BME280;6903;49.480;11.102;2023-03-20T06:05:25;98185.03;;;9.40;100.00
13661;BME280;6903;49.480;11.102;2023-03-20T06:07:50;98186.59;;;9.42;100.00
13661;BME280;6903;49.480;11.102;2023-03-20T06:10:15;98191.69;;;9.45;100.00
13661;BME280;6903;49.480;11.102;2023-03-20T06:12:41;98194.91;;;9.49;100.00
13661;BME280;6903;49.480;11.102;2023-03-20T06:15:06;98195.53;;;9.52;100.00
13661;BME280;6903;49.480;11.102;2023-03-20T06:17:32;98209.31;;;9.56;100.00
13661;BME280;6903;49.480;11.102;2023-03-20T06:19:57;98201.31;;;9.57;100.00
13661;BME280;6903;49.480;11.102;2023-03-20T06:22:22;98214.25;;;9.60;100.00
13661;BME280;6903;49.480;11.102;2023-03-20T06:24:48;98214.13;;;9.62;100.00
13661;BME280;6903;49.480;11.102;2023-03-20T06:27:13;98214.78;;;9.65;100.00
13661;BME280;6903;49.480;11.102;2023-03-20T06:29:38;98223.19;;;9.70;100.00
13661;BME280;6903;49.480;11.102;2023-03-20T06:32:07;98219.47;;;9.73;100.00
13661;BME280;6903;49.480;11.102;2023-03-20T06:34:33;98216.53;;;9.77;100.00
13661;BME280;6903;49.480;11.102;2023-03-20T06:36:59;98216.09;;;9.83;100.00
13661;BME280;6903;49.480;11.102;2023-03-20T06:39:24;98213.97;;;9.88;100.00
13661;BME280;6903;49.480;11.102;2023-03-20T06:41:49;98217.13;;;9.93;100.00
13661;BME280;6903;49.480;11.102;2023-03-20T06:44:14;98215.09;;;9.97;100.00
13661;BME280;6903;49.480;11.102;2023-03-20T06:46:40;98218.09;;;10.03;100.00
13661;BME280;6903;49.480;11.102;2023-03-20T06:49:05;98225.72;;;10.08;100.00
13661;BME280;6903;49.480;11.102;2023-03-20T06:51:31;98220.22;;;10.11;100.00
13661;BME280;6903;49.480;11.102;2023-03-20T06:53:56;98228.44;;;10.07;100.00
13661;BME280;6903;49.480;11.102;2023-03-20T06:56:22;98226.53;;;10.09;100.00
13661;BME280;6903;49.480;11.102;2023-03-20T06:58:47;98221.66;;;10.15;100.00
13661;BME280;6903;49.480;11.102;2023-03-20T07:01:14;98223.03;;;10.21;100.00
13661;BME280;6903;49.480;11.102;2023-03-20T07:03:41;98215.41;;;10.29;100.00
13661;BME280;6903;49.480;11.102;2023-03-20T07:06:07;98215.03;;;10.33;100.00
13661;BME280;6903;49.480;11.102;2023-03-20T07:08:33;98214.59;;;10.39;100.00
13661;BME280;6903;49.480;11.102;2023-03-20T07:10:58;98220.84;;;10.49;100.00
13661;BME280;6903;49.480;11.102;2023-03-20T07:13:24;98218.38;;;10.59;100.00
13661;BME280;6903;49.480;11.102;2023-03-20T07:15:50;98220.44;;;10.66;100.00
13661;BME280;6903;49.480;11.102;2023-03-20T07:18:15;98228.72;;;10.73;100.00
13661;BME280;6903;49.480;11.102;2023-03-20T07:20:41;98223.00;;;10.79;100.00
13661;BME280;6903;49.480;11.102;2023-03-20T07:23:07;98221.53;;;10.86;100.00
13661;BME280;6903;49.480;11.102;2023-03-20T07:25:32;98218.22;;;10.95;100.00
13661;BME280;6903;49.480;11.102;2023-03-20T07:27:58;98220.63;;;10.98;100.00
13661;BME280;6903;49.480;11.102;2023-03-20T07:30:23;98227.69;;;10.97;100.00
13661;BME280;6903;49.480;11.102;2023-03-20T07:32:49;98227.00;;;11.06;100.00
13661;BME280;6903;49.480;11.102;2023-03-20T07:35:14;98228.06;;;11.15;100.00
13661;BME280;6903;49.480;11.102;2023-03-20T07:37:39;98223.75;;;11.25;100.00
13661;BME280;6903;49.480;11.102;2023-03-20T07:40:05;98226.41;;;11.36;100.00
13661;BME280;6903;49.480;11.102;2023-03-20T07:42:31;98228.34;;;11.45;100.00
13661;BME280;6903;49.480;11.102;2023-03-20T07:44:56;98220.53;;;11.55;100.00
13661;BME280;6903;49.480;11.102;2023-03-20T07:47:21;98219.81;;;11.64;100.00
13661;BME280;6903;49.480;11.102;2023-03-20T07:49:47;98216.34;;;11.74;100.00
13661;BME280;6903;49.480;11.102;2023-03-20T07:52:12;98216.91;;;11.78;100.00
13661;BME280;6903;49.480;11.102;2023-03-20T07:54:37;98216.56;;;11.82;100.00
13661;BME280;6903;49.480;11.102;2023-03-20T07:57:03;98219.19;;;11.93;100.00
13661;BME280;6903;49.480;11.102;2023-03-20T07:59:30;98222.66;;;12.05;100.00
13661;BME280;6903;49.480;11.102;2023-03-20T08:01:55;98215.50;;;12.16;100.00
13661;BME280;6903;49.480;11.102;2023-03-20T08:04:20;98221.00;;;12.24;100.00
13661;BME280;6903;49.480;11.102;2023-03-20T08:06:47;98217.47;;;12.35;100.00
13661;BME280;6903;49.480;11.102;2023-03-20T08:09:12;98221.66;;;12.37;100.00
13661;BME280;6903;49.480;11.102;2023-03-20T08:11:38;98224.91;;;12.41;100.00
13661;BME280;6903;49.480;11.102;2023-03-20T08:14:03;98224.25;;;12.48;100.00
13661;BME280;6903;49.480;11.102;2023-03-20T08:16:28;98222.84;;;12.44;100.00
13661;BME280;6903;49.480;11.102;2023-03-20T08:18:54;98218.34;;;12.56;100.00
13661;BME280;6903;49.480;11.102;2023-03-20T08:21:25;98219.97;;;12.68;100.00
13661;BME280;6903;49.480;11.102;2023-03-20T08:23:51;98216.63;;;12.87;100.00
13661;BME280;6903;49.480;11.102;2023-03-20T08:26:16;98224.84;;;13.04;100.00
13661;BME280;6903;49.480;11.102;2023-03-20T08:28:41;98219.34;;;13.17;100.00
13661;BME280;6903;49.480;11.102;2023-03-20T08:31:08;98209.94;;;13.33;100.00
13661;BME280;6903;49.480;11.102;2023-03-20T08:33:33;98214.44;;;13.42;100.00
13661;BME280;6903;49.480;11.102;2023-03-20T08:35:59;98210.03;;;13.52;100.00
13661;BME280;6903;49.480;11.102;2023-03-20T08:38:24;98208.06;;;13.45;100.00
13661;BME280;6903;49.480;11.102;2023-03-20T08:40:50;98210.34;;;13.59;100.00
13661;BME280;6903;49.480;11.102;2023-03-20T08:43:15;98214.03;;;13.77;100.00
13661;BME280;6903;49.480;11.102;2023-03-20T08:45:41;98215.69;;;13.78;100.00
13661;BME280;6903;49.480;11.102;2023-03-20T08:48:06;98217.13;;;13.91;100.00
13661;BME280;6903;49.480;11.102;2023-03-20T08:50:31;98205.69;;;14.00;100.00
13661;BME280;6903;49.480;11.102;2023-03-20T08:52:57;98212.81;;;14.09;100.00
13661;BME280;6903;49.480;11.102;2023-03-20T08:55:22;98211.72;;;14.12;100.00
13661;BME280;6903;49.480;11.102;2023-03-20T08:57:47;98212.84;;;14.19;100.00
13661;BME280;6903;49.480;11.102;2023-03-20T09:00:14;98211.72;;;14.21;100.00
13661;BME280;6903;49.480;11.102;2023-03-20T09:02:41;98214.41;;;14.31;100.00
13661;BME280;6903;49.480;11.102;2023-03-20T09:05:08;98211.91;;;14.39;100.00
13661;BME280;6903;49.480;11.102;2023-03-20T09:07:33;98216.50;;;14.56;100.00
13661;BME280;6903;49.480;11.102;2023-03-20T09:09:59;98221.13;;;14.73;100.00
13661;BME280;6903;49.480;11.102;2023-03-20T09:12:25;98212.03;;;14.76;100.00
13661;BME280;6903;49.480;11.102;2023-03-20T09:14:50;98220.56;;;14.79;100.00
13661;BME280;6903;49.480;11.102;2023-03-20T09:17:15;98229.22;;;14.81;100.00
13661;BME280;6903;49.480;11.102;2023-03-20T09:19:41;98227.28;;;14.83;100.00
13661;BME280;6903;49.480;11.102;2023-03-20T09:22:11;98226.13;;;14.86;100.00
13661;BME280;6903;49.480;11.102;2023-03-20T09:24:37;98230.19;;;14.99;100.00
13661;BME280;6903;49.480;11.102;2023-03-20T09:27:02;98237.44;;;15.07;100.00
13661;BME280;6903;49.480;11.102;2023-03-20T09:29:27;98228.63;;;15.06;100.00
13661;BME280;6903;49.480;11.102;2023-03-20T09:31:53;98232.69;;;15.01;100.00
13661;BME280;6903;49.480;11.102;2023-03-20T09:34:18;98237.44;;;14.97;100.00
13661;BME280;6903;49.480;11.102;2023-03-20T09:36:44;98230.31;;;14.98;100.00
13661;BME280;6903;49.480;11.102;2023-03-20T09:39:09;98233.63;;;15.09;100.00
13661;BME280;6903;49.480;11.102;2023-03-20T09:41:35;98229.16;;;15.10;100.00
13661;BME280;6903;49.480;11.102;2023-03-20T09:44:22;98230.84;;;15.20;100.00
13661;BME280;6903;49.480;11.102;2023-03-20T09:49:38;98239.44;;;15.32;100.00
13661;BME280;6903;49.480;11.102;2023-03-20T09:52:34;98234.72;;;15.26;100.00
13661;BME280;6903;49.480;11.102;2023-03-20T09:55:16;98240.19;;;15.24;100.00
13661;BME280;6903;49.480;11.102;2023-03-20T09:57:50;98236.66;;;15.33;100.00
13661;BME280;6903;49.480;11.102;2023-03-20T10:00:19;98240.44;;;15.40;100.00
13661;BME280;6903;49.480;11.102;2023-03-20T10:02:51;98228.00;;;15.31;100.00
13661;BME280;6903;49.480;11.102;2023-03-20T10:08:29;98232.19;;;15.34;100.00
13661;BME280;6903;49.480;11.102;2023-03-20T10:14:15;98226.94;;;15.15;100.00
13661;BME280;6903;49.480;11.102;2023-03-20T10:19:33;98234.66;;;15.54;100.00
13661;BME280;6903;49.480;11.102;2023-03-20T10:22:06;98230.16;;;15.65;100.00
13661;BME280;6903;49.480;11.102;2023-03-20T10:24:49;98227.63;;;15.63;100.00
13661;BME280;6903;49.480;11.102;2023-03-20T10:27:22;98234.50;;;15.66;100.00
13661;BME280;6903;49.480;11.102;2023-03-20T10:32:35;98227.78;;;15.62;100.00
13661;BME280;6903;49.480;11.102;2023-03-20T10:35:27;98231.84;;;15.66;100.00
13661;BME280;6903;49.480;11.102;2023-03-20T10:38:08;98225.22;;;15.70;100.00
13661;BME280;6903;49.480;11.102;2023-03-20T10:40:39;98226.63;;;15.74;100.00
13661;BME280;6903;49.480;11.102;2023-03-20T10:46:01;98233.81;;;15.91;100.00
13661;BME280;6903;49.480;11.102;2023-03-20T10:48:42;98233.19;;;15.97;100.00
13661;BME280;6903;49.480;11.102;2023-03-20T10:51:13;98217.63;;;16.02;100.00
13661;BME280;6903;49.480;11.102;2023-03-20T10:53:47;98222.09;;;16.11;100.00
13661;BME280;6903;49.480;11.102;2023-03-20T10:56:28;98221.56;;;16.25;100.00
13661;BME280;6903;49.480;11.102;2023-03-20T10:59:03;98226.91;;;16.42;100.00
13661;BME280;6903;49.480;11.102;2023-03-20T11:01:29;98229.41;;;16.44;100.00
13661;BME280;6903;49.480;11.102;2023-03-20T11:03:54;98222.59;;;16.59;100.00
13661;BME280;6903;49.480;11.102;2023-03-20T11:06:33;98219.91;;;16.76;100.00
13661;BME280;6903;49.480;11.102;2023-03-20T11:09:18;98229.84;;;16.92;100.00
13661;BME280;6903;49.480;11.102;2023-03-20T11:11:45;98216.91;;;16.97;100.00
13661;BME280;6903;49.480;11.102;2023-03-20T11:14:22;98226.94;;;17.03;100.00
13661;BME280;6903;49.480;11.102;2023-03-20T11:16:55;98221.63;;;17.03;100.00
13661;BME280;6903;49.480;11.102;2023-03-20T11:19:24;98213.31;;;17.06;100.00
13661;BME280;6903;49.480;11.102;2023-03-20T11:21:55;98213.31;;;17.06;100.00
13661;BME280;6903;49.480;11.102;2023-03-20T11:24:25;98212.03;;;17.10;100.00
13661;BME280;6903;49.480;11.102;2023-03-20T11:26:51;98211.03;;;17.11;100.00
13661;BME280;6903;49.480;11.102;2023-03-20T11:29:30;98207.66;;;17.09;100.00
13661;BME280;6903;49.480;11.102;2023-03-20T11:32:04;98211.28;;;17.00;100.00
13661;BME280;6903;49.480;11.102;2023-03-20T11:34:32;98207.59;;;17.01;100.00
13661;BME280;6903;49.480;11.102;2023-03-20T11:37:00;98212.41;;;17.15;100.00
13661;BME280;6903;49.480;11.102;2023-03-20T11:39:30;98209.47;;;17.26;100.00
13661;BME280;6903;49.480;11.102;2023-03-20T11:42:01;98208.81;;;17.32;100.00
13661;BME280;6903;49.480;11.102;2023-03-20T11:44:31;98210.81;;;17.30;100.00
13661;BME280;6903;49.480;11.102;2023-03-20T11:47:17;98199.81;;;17.33;100.00
13661;BME280;6903;49.480;11.102;2023-03-20T11:49:47;98204.88;;;17.36;100.00
13661;BME280;6903;49.480;11.102;2023-03-20T11:52:19;98204.22;;;17.42;100.00
13661;BME280;6903;49.480;11.102;2023-03-20T11:54:50;98205.63;;;17.54;100.00
13661;BME280;6903;49.480;11.102;2023-03-20T11:57:39;98207.38;;;17.63;100.00
13661;BME280;6903;49.480;11.102;2023-03-20T12:02:31;98198.00;;;17.59;100.00
13661;BME280;6903;49.480;11.102;2023-03-20T12:05:00;98199.59;;;17.44;100.00
13661;BME280;6903;49.480;11.102;2023-03-20T12:07:31;98192.78;;;17.50;100.00
13661;BME280;6903;49.480;11.102;2023-03-20T12:10:11;98197.84;;;17.61;100.00
13661;BME280;6903;49.480;11.102;2023-03-20T12:12:41;98190.22;;;17.74;100.00
13661;BME280;6903;49.480;11.102;2023-03-20T12:20:44;98184.63;;;17.93;100.00
13661;BME280;6903;49.480;11.102;2023-03-20T12:23:13;98178.41;;;17.76;100.00
13661;BME280;6903;49.480;11.102;2023-03-20T12:25:56;98177.09;;;17.80;100.00
13661;BME280;6903;49.480;11.102;2023-03-20T12:28:28;98173.69;;;17.62;100.00
13661;BME280;6903;49.480;11.102;2023-03-20T12:31:03;98166.56;;;17.71;100.00
13661;BME280;6903;49.480;11.102;2023-03-20T12:33:58;98162.41;;;17.76;100.00
13661;BME280;6903;49.480;11.102;2023-03-20T12:36:33;98159.84;;;18.08;100.00
13661;BME280;6903;49.480;11.102;2023-03-20T12:39:02;98165.59;;;18.54;100.00
13661;BME280;6903;49.480;11.102;2023-03-20T12:41:33;98154.59;;;18.81;100.00
13661;BME280;6903;49.480;11.102;2023-03-20T12:44:17;98158.56;;;18.77;100.00
13661;BME280;6903;49.480;11.102;2023-03-20T12:47:21;98157.59;;;18.70;100.00
13661;BME280;6903;49.480;11.102;2023-03-20T12:50:06;98154.09;;;18.69;100.00
13661;BME280;6903;49.480;11.102;2023-03-20T12:58:42;98155.88;;;18.93;100.00
13661;BME280;6903;49.480;11.102;2023-03-20T13:01:21;98159.75;;;18.82;100.00
13661;BME280;6903;49.480;11.102;2023-03-20T13:14:39;98144.16;;;18.05;100.00
13661;BME280;6903;49.480;11.102;2023-03-20T13:17:34;98148.41;;;17.74;100.00
13661;BME280;6903;49.480;11.102;2023-03-20T13:28:18;98144.44;;;16.68;100.00
13661;BME280;6903;49.480;11.102;2023-03-20T13:31:01;98141.25;;;16.64;100.00
13661;BME280;6903;49.480;11.102;2023-03-20T13:38:59;98142.31;;;16.71;100.00
13661;BME280;6903;49.480;11.102;2023-03-20T13:41:25;98141.47;;;16.71;100.00
13661;BME280;6903;49.480;11.102;2023-03-20T13:43:54;98143.66;;;16.75;100.00
13661;BME280;6903;49.480;11.102;2023-03-20T13:46:28;98139.34;;;16.74;100.00
13661;BME280;6903;49.480;11.102;2023-03-20T13:49:02;98138.72;;;16.80;100.00
13661;BME280;6903;49.480;11.102;2023-03-20T13:51:32;98137.31;;;16.94;100.00
13661;BME280;6903;49.480;11.102;2023-03-20T13:54:36;98126.03;;;17.00;100.00
13661;BME280;6903;49.480;11.102;2023-03-20T13:57:44;98119.09;;;17.07;100.00
13661;BME280;6903;49.480;11.102;2023-03-20T14:00:23;98115.66;;;17.23;100.00
13661;BME280;6903;49.480;11.102;2023-03-20T14:03:23;98115.63;;;17.48;100.00
13661;BME280;6903;49.480;11.102;2023-03-20T14:05:49;98106.41;;;17.76;100.00
13661;BME280;6903;49.480;11.102;2023-03-20T14:08:53;98105.09;;;17.96;100.00
13661;BME280;6903;49.480;11.102;2023-03-20T14:13:55;98108.78;;;17.95;100.00
13661;BME280;6903;49.480;11.102;2023-03-20T14:16:22;98098.72;;;17.73;100.00
13661;BME280;6903;49.480;11.102;2023-03-20T14:19:04;98097.34;;;17.61;100.00
13661;BME280;6903;49.480;11.102;2023-03-20T14:21:33;98099.81;;;17.55;100.00
13661;BME280;6903;49.480;11.102;2023-03-20T14:24:02;98100.34;;;17.58;100.00
13661;BME280;6903;49.480;11.102;2023-03-20T14:26:32;98093.38;;;17.65;100.00
13661;BME280;6903;49.480;11.102;2023-03-20T14:29:01;98092.03;;;17.69;99.67